sensor_id;sensor_type;location;lat;lon;timestamp;P1;durP1;ratioP1;P2;durP2;ratioP2
3347;SDS011;1687;49.540;8.574;2023-07-13T00:01:46;3.20;;;1.90;;
3347;SDS011;1687;49.540;8.574;2023-07-13T00:04:14;4.77;;;1.70;;
3347;SDS011;1687;49.540;8.574;2023-07-13T00:06:46;3.20;;;1.73;;
3347;SDS011;1687;49.540;8.574;2023-07-13T00:09:12;2.97;;;1.70;;
3347;SDS011;1687;49.540;8.574;2023-07-13T00:11:40;4.50;;;1.80;;
3347;SDS011;1687;49.540;8.574;2023-07-13T00:14:06;3.30;;;1.67;;
3347;SDS011;1687;49.540;8.574;2023-07-13T00:16:33;5.40;;;1.50;;
3347;SDS011;1687;49.540;8.574;2023-07-13T00:19:04;12.73;;;2.17;;
3347;SDS011;1687;49.540;8.574;2023-07-13T00:21:30;2.93;;;1.70;;
3347;SDS011;1687;49.540;8.574;2023-07-13T00:23:56;3.43;;;1.50;;
3347;SDS011;1687;49.540;8.574;2023-07-13T00:26:22;4.90;;;2.00;;
3347;SDS011;1687;49.540;8.574;2023-07-13T00:28:49;6.93;;;2.27;;
3347;SDS011;1687;49.540;8.574;2023-07-13T00:31:15;3.90;;;2.07;;
3347;SDS011;1687;49.540;8.574;2023-07-13T00:33:41;2.70;;;1.70;;
3347;SDS011;1687;49.540;8.574;2023-07-13T00:36:07;4.33;;;2.07;;
3347;SDS011;1687;49.540;8.574;2023-07-13T00:38:34;4.37;;;1.80;;
3347;SDS011;1687;49.540;8.574;2023-07-13T00:41:00;20.97;;;2.80;;
3347;SDS011;1687;49.540;8.574;2023-07-13T00:43:27;3.53;;;2.20;;
3347;SDS011;1687;49.540;8.574;2023-07-13T00:48:53;4.83;;;1.90;;
3347;SDS011;1687;49.540;8.574;2023-07-13T00:51:22;3.20;;;1.70;;
3347;SDS011;1687;49.540;8.574;2023-07-13T00:53:54;7.13;;;1.93;;
3347;SDS011;1687;49.540;8.574;2023-07-13T00:56:24;5.03;;;1.97;;
3347;SDS011;1687;49.540;8.574;2023-07-13T00:58:50;2.63;;;1.80;;
3347;SDS011;1687;49.540;8.574;2023-07-13T01:01:17;7.00;;;3.00;;
3347;SDS011;1687;49.540;8.574;2023-07-13T01:03:43;5.07;;;2.10;;
3347;SDS011;1687;49.540;8.574;2023-07-13T01:06:09;3.47;;;1.97;;
3347;SDS011;1687;49.540;8.574;2023-07-13T01:08:35;4.83;;;2.20;;
3347;SDS011;1687;49.540;8.574;2023-07-13T01:11:01;4.70;;;2.70;;
3347;SDS011;1687;49.540;8.574;2023-07-13T01:13:27;4.80;;;2.67;;
3347;SDS011;1687;49.540;8.574;2023-07-13T01:15:53;8.43;;;2.83;;
3347;SDS011;1687;49.540;8.574;2023-07-13T01:18:23;13.00;;;2.90;;
3347;SDS011;1687;49.540;8.574;2023-07-13T01:23:19;5.70;;;2.30;;
3347;SDS011;1687;49.540;8.574;2023-07-13T01:25:46;3.60;;;2.33;;
3347;SDS011;1687;49.540;8.574;2023-07-13T01:28:12;5.30;;;2.37;;
3347;SDS011;1687;49.540;8.574;2023-07-13T01:30:38;6.17;;;2.97;;
3347;SDS011;1687;49.540;8.574;2023-07-13T01:33:06;6.93;;;3.00;;
3347;SDS011;1687;49.540;8.574;2023-07-13T01:35:33;4.17;;;2.57;;
3347;SDS011;1687;49.540;8.574;2023-07-13T01:37:59;6.10;;;2.83;;
3347;SDS011;1687;49.540;8.574;2023-07-13T01:40:26;6.57;;;2.47;;
3347;SDS011;1687;49.540;8.574;2023-07-13T01:42:52;5.33;;;2.30;;
3347;SDS011;1687;49.540;8.574;2023-07-13T01:45:18;5.23;;;2.83;;
3347;SDS011;1687;49.540;8.574;2023-07-13T01:47:44;5.13;;;2.60;;
3347;SDS011;1687;49.540;8.574;2023-07-13T01:50:09;6.60;;;2.77;;
3347;SDS011;1687;49.540;8.574;2023-07-13T01:52:35;14.30;;;2.90;;
3347;SDS011;1687;49.540;8.574;2023-07-13T01:55:01;4.60;;;2.63;;
3347;SDS011;1687;49.540;8.574;2023-07-13T01:57:27;5.33;;;2.40;;
3347;SDS011;1687;49.540;8.574;2023-07-13T01:59:53;4.90;;;2.63;;
3347;SDS011;1687;49.540;8.574;2023-07-13T02:02:19;9.00;;;2.83;;
3347;SDS011;1687;49.540;8.574;2023-07-13T02:04:44;4.30;;;2.37;;
3347;SDS011;1687;49.540;8.574;2023-07-13T02:07:10;4.90;;;2.73;;
3347;SDS011;1687;49.540;8.574;2023-07-13T02:09:36;5.87;;;2.80;;
3347;SDS011;1687;49.540;8.574;2023-07-13T02:12:02;8.13;;;2.40;;
3347;SDS011;1687;49.540;8.574;2023-07-13T02:14:28;7.10;;;2.60;;
3347;SDS011;1687;49.540;8.574;2023-07-13T02:16:54;11.97;;;3.20;;
3347;SDS011;1687;49.540;8.574;2023-07-13T02:19:19;4.60;;;2.17;;
3347;SDS011;1687;49.540;8.574;2023-07-13T02:21:45;5.03;;;2.10;;
3347;SDS011;1687;49.540;8.574;2023-07-13T02:24:11;5.87;;;2.97;;
3347;SDS011;1687;49.540;8.574;2023-07-13T02:26:42;9.90;;;3.23;;
3347;SDS011;1687;49.540;8.574;2023-07-13T02:29:10;7.40;;;2.70;;
3347;SDS011;1687;49.540;8.574;2023-07-13T02:31:36;18.97;;;3.17;;
3347;SDS011;1687;49.540;8.574;2023-07-13T02:34:03;12.87;;;3.00;;
3347;SDS011;1687;49.540;8.574;2023-07-13T02:36:29;7.57;;;2.60;;
3347;SDS011;1687;49.540;8.574;2023-07-13T02:38:57;6.17;;;2.73;;
3347;SDS011;1687;49.540;8.574;2023-07-13T02:41:27;13.70;;;2.87;;
3347;SDS011;1687;49.540;8.574;2023-07-13T02:43:54;8.63;;;2.93;;
3347;SDS011;1687;49.540;8.574;2023-07-13T02:46:27;7.50;;;3.57;;
3347;SDS011;1687;49.540;8.574;2023-07-13T02:48:54;7.73;;;2.70;;
3347;SDS011;1687;49.540;8.574;2023-07-13T02:51:20;5.20;;;2.70;;
3347;SDS011;1687;49.540;8.574;2023-07-13T02:53:46;6.00;;;2.90;;
3347;SDS011;1687;49.540;8.574;2023-07-13T02:56:12;5.80;;;2.90;;
3347;SDS011;1687;49.540;8.574;2023-07-13T02:58:37;4.43;;;3.00;;
3347;SDS011;1687;49.540;8.574;2023-07-13T03:01:07;14.40;;;3.93;;
3347;SDS011;1687;49.540;8.574;2023-07-13T03:03:34;6.13;;;3.30;;
3347;SDS011;1687;49.540;8.574;2023-07-13T03:06:01;10.60;;;3.43;;
3347;SDS011;1687;49.540;8.574;2023-07-13T03:08:30;8.33;;;3.17;;
3347;SDS011;1687;49.540;8.574;2023-07-13T03:10:59;8.17;;;2.77;;
3347;SDS011;1687;49.540;8.574;2023-07-13T03:13:31;6.87;;;2.50;;
3347;SDS011;1687;49.540;8.574;2023-07-13T03:15:57;7.73;;;3.33;;
3347;SDS011;1687;49.540;8.574;2023-07-13T03:18:23;9.30;;;4.03;;
3347;SDS011;1687;49.540;8.574;2023-07-13T03:20:52;5.80;;;2.87;;
3347;SDS011;1687;49.540;8.574;2023-07-13T03:23:18;7.10;;;3.47;;
3347;SDS011;1687;49.540;8.574;2023-07-13T03:25:45;11.63;;;4.07;;
3347;SDS011;1687;49.540;8.574;2023-07-13T03:28:11;4.70;;;2.50;;
3347;SDS011;1687;49.540;8.574;2023-07-13T03:30:37;5.50;;;2.60;;
3347;SDS011;1687;49.540;8.574;2023-07-13T03:33:03;6.20;;;3.63;;
3347;SDS011;1687;49.540;8.574;2023-07-13T03:35:29;5.90;;;2.77;;
3347;SDS011;1687;49.540;8.574;2023-07-13T03:37:55;6.13;;;3.33;;
3347;SDS011;1687;49.540;8.574;2023-07-13T03:40:21;6.63;;;3.57;;
3347;SDS011;1687;49.540;8.574;2023-07-13T03:42:47;5.63;;;3.30;;
3347;SDS011;1687;49.540;8.574;2023-07-13T03:45:13;9.87;;;2.60;;
3347;SDS011;1687;49.540;8.574;2023-07-13T03:47:38;6.37;;;3.00;;
3347;SDS011;1687;49.540;8.574;2023-07-13T03:50:04;6.40;;;3.20;;
3347;SDS011;1687;49.540;8.574;2023-07-13T03:52:31;6.53;;;3.00;;
3347;SDS011;1687;49.540;8.574;2023-07-13T03:54:56;6.73;;;3.13;;
3347;SDS011;1687;49.540;8.574;2023-07-13T03:57:22;16.03;;;3.93;;
3347;SDS011;1687;49.540;8.574;2023-07-13T03:59:48;5.70;;;3.27;;
3347;SDS011;1687;49.540;8.574;2023-07-13T04:02:13;4.50;;;2.37;;
3347;SDS011;1687;49.540;8.574;2023-07-13T04:04:39;5.83;;;2.67;;
3347;SDS011;1687;49.540;8.574;2023-07-13T04:07:05;11.10;;;2.93;;
3347;SDS011;1687;49.540;8.574;2023-07-13T04:09:33;5.73;;;2.40;;
3347;SDS011;1687;49.540;8.574;2023-07-13T04:11:59;9.73;;;2.73;;
3347;SDS011;1687;49.540;8.574;2023-07-13T04:14:25;7.70;;;2.97;;
3347;SDS011;1687;49.540;8.574;2023-07-13T04:16:50;7.47;;;2.93;;
3347;SDS011;1687;49.540;8.574;2023-07-13T04:19:16;11.10;;;3.57;;
3347;SDS011;1687;49.540;8.574;2023-07-13T04:21:42;9.70;;;3.50;;
3347;SDS011;1687;49.540;8.574;2023-07-13T04:24:08;4.77;;;2.60;;
3347;SDS011;1687;49.540;8.574;2023-07-13T04:26:33;7.60;;;3.63;;
3347;SDS011;1687;49.540;8.574;2023-07-13T04:29:01;5.77;;;3.13;;
3347;SDS011;1687;49.540;8.574;2023-07-13T04:31:28;5.23;;;2.77;;
3347;SDS011;1687;49.540;8.574;2023-07-13T04:33:55;7.17;;;3.20;;
3347;SDS011;1687;49.540;8.574;2023-07-13T04:36:20;6.23;;;2.87;;
3347;SDS011;1687;49.540;8.574;2023-07-13T04:38:46;7.53;;;3.20;;
3347;SDS011;1687;49.540;8.574;2023-07-13T04:41:12;9.83;;;3.00;;
3347;SDS011;1687;49.540;8.574;2023-07-13T04:43:40;7.27;;;3.10;;
3347;SDS011;1687;49.540;8.574;2023-07-13T04:46:10;7.90;;;2.77;;
3347;SDS011;1687;49.540;8.574;2023-07-13T04:48:38;9.33;;;3.27;;
3347;SDS011;1687;49.540;8.574;2023-07-13T04:51:04;5.97;;;3.00;;
3347;SDS011;1687;49.540;8.574;2023-07-13T04:53:31;12.70;;;3.30;;
3347;SDS011;1687;49.540;8.574;2023-07-13T04:55:58;8.07;;;3.40;;
3347;SDS011;1687;49.540;8.574;2023-07-13T04:58:24;5.13;;;2.67;;
3347;SDS011;1687;49.540;8.574;2023-07-13T05:00:50;7.90;;;2.80;;
3347;SDS011;1687;49.540;8.574;2023-07-13T05:03:16;11.30;;;3.17;;
3347;SDS011;1687;49.540;8.574;2023-07-13T05:05:42;5.33;;;2.90;;
3347;SDS011;1687;49.540;8.574;2023-07-13T05:08:08;14.73;;;3.13;;
3347;SDS011;1687;49.540;8.574;2023-07-13T05:10:35;11.40;;;2.90;;
3347;SDS011;1687;49.540;8.574;2023-07-13T05:13:00;7.43;;;3.73;;
3347;SDS011;1687;49.540;8.574;2023-07-13T05:15:27;9.37;;;4.50;;
3347;SDS011;1687;49.540;8.574;2023-07-13T05:17:52;7.80;;;3.93;;
3347;SDS011;1687;49.540;8.574;2023-07-13T05:20:18;6.10;;;3.60;;
3347;SDS011;1687;49.540;8.574;2023-07-13T05:22:44;4.77;;;3.47;;
3347;SDS011;1687;49.540;8.574;2023-07-13T05:25:12;10.93;;;3.37;;
3347;SDS011;1687;49.540;8.574;2023-07-13T05:27:39;8.00;;;3.50;;
3347;SDS011;1687;49.540;8.574;2023-07-13T05:30:04;7.40;;;3.37;;
3347;SDS011;1687;49.540;8.574;2023-07-13T05:32:31;11.70;;;3.37;;
3347;SDS011;1687;49.540;8.574;2023-07-13T05:34:58;5.27;;;2.97;;
3347;SDS011;1687;49.540;8.574;2023-07-13T05:37:23;8.73;;;3.70;;
3347;SDS011;1687;49.540;8.574;2023-07-13T05:39:49;4.20;;;2.57;;
3347;SDS011;1687;49.540;8.574;2023-07-13T05:42:15;9.30;;;3.87;;
3347;SDS011;1687;49.540;8.574;2023-07-13T05:44:40;6.20;;;3.13;;
3347;SDS011;1687;49.540;8.574;2023-07-13T05:47:06;6.33;;;3.13;;
3347;SDS011;1687;49.540;8.574;2023-07-13T05:49:32;8.20;;;4.00;;
3347;SDS011;1687;49.540;8.574;2023-07-13T05:51:57;6.27;;;3.50;;
3347;SDS011;1687;49.540;8.574;2023-07-13T05:54:23;7.43;;;2.77;;
3347;SDS011;1687;49.540;8.574;2023-07-13T05:56:48;17.53;;;4.30;;
3347;SDS011;1687;49.540;8.574;2023-07-13T05:59:14;7.40;;;3.17;;
3347;SDS011;1687;49.540;8.574;2023-07-13T06:01:40;10.27;;;3.67;;
3347;SDS011;1687;49.540;8.574;2023-07-13T06:04:06;5.90;;;2.77;;
3347;SDS011;1687;49.540;8.574;2023-07-13T06:06:32;4.80;;;2.70;;
3347;SDS011;1687;49.540;8.574;2023-07-13T06:08:58;7.77;;;3.30;;
3347;SDS011;1687;49.540;8.574;2023-07-13T06:11:25;16.47;;;3.13;;
3347;SDS011;1687;49.540;8.574;2023-07-13T06:13:52;7.80;;;2.90;;
3347;SDS011;1687;49.540;8.574;2023-07-13T06:16:19;4.77;;;2.60;;
3347;SDS011;1687;49.540;8.574;2023-07-13T06:18:44;6.10;;;2.63;;
3347;SDS011;1687;49.540;8.574;2023-07-13T06:21:13;4.80;;;2.30;;
3347;SDS011;1687;49.540;8.574;2023-07-13T06:23:41;6.90;;;3.40;;
3347;SDS011;1687;49.540;8.574;2023-07-13T06:26:07;6.00;;;2.90;;
3347;SDS011;1687;49.540;8.574;2023-07-13T06:28:35;9.30;;;2.50;;
3347;SDS011;1687;49.540;8.574;2023-07-13T06:31:01;8.93;;;2.70;;
3347;SDS011;1687;49.540;8.574;2023-07-13T06:33:33;4.50;;;2.60;;
3347;SDS011;1687;49.540;8.574;2023-07-13T06:35:59;4.83;;;2.17;;
3347;SDS011;1687;49.540;8.574;2023-07-13T06:38:24;6.93;;;2.10;;
3347;SDS011;1687;49.540;8.574;2023-07-13T06:40:50;4.27;;;1.70;;
3347;SDS011;1687;49.540;8.574;2023-07-13T06:43:16;3.83;;;2.33;;
3347;SDS011;1687;49.540;8.574;2023-07-13T06:45:44;7.10;;;2.57;;
3347;SDS011;1687;49.540;8.574;2023-07-13T06:48:12;4.83;;;2.47;;
3347;SDS011;1687;49.540;8.574;2023-07-13T06:50:39;4.30;;;2.00;;
3347;SDS011;1687;49.540;8.574;2023-07-13T06:53:06;3.80;;;2.30;;
3347;SDS011;1687;49.540;8.574;2023-07-13T06:55:32;6.23;;;2.37;;
3347;SDS011;1687;49.540;8.574;2023-07-13T06:57:57;7.87;;;2.30;;
3347;SDS011;1687;49.540;8.574;2023-07-13T07:00:23;7.03;;;2.53;;
3347;SDS011;1687;49.540;8.574;2023-07-13T07:02:49;5.90;;;2.07;;
3347;SDS011;1687;49.540;8.574;2023-07-13T07:05:14;4.53;;;1.90;;
3347;SDS011;1687;49.540;8.574;2023-07-13T07:07:40;6.90;;;2.20;;
3347;SDS011;1687;49.540;8.574;2023-07-13T07:10:06;12.70;;;2.10;;
3347;SDS011;1687;49.540;8.574;2023-07-13T07:12:32;4.53;;;2.40;;
3347;SDS011;1687;49.540;8.574;2023-07-13T07:14:58;3.80;;;1.80;;
3347;SDS011;1687;49.540;8.574;2023-07-13T07:17:24;5.27;;;2.17;;
3347;SDS011;1687;49.540;8.574;2023-07-13T07:19:50;9.00;;;2.03;;
3347;SDS011;1687;49.540;8.574;2023-07-13T07:22:19;3.03;;;1.80;;
3347;SDS011;1687;49.540;8.574;2023-07-13T07:24:45;8.00;;;1.87;;
3347;SDS011;1687;49.540;8.574;2023-07-13T07:27:11;4.33;;;2.20;;
3347;SDS011;1687;49.540;8.574;2023-07-13T07:29:37;7.83;;;2.53;;
3347;SDS011;1687;49.540;8.574;2023-07-13T07:32:02;9.13;;;2.17;;
3347;SDS011;1687;49.540;8.574;2023-07-13T07:34:29;4.93;;;2.27;;
3347;SDS011;1687;49.540;8.574;2023-07-13T07:36:59;9.97;;;2.30;;
3347;SDS011;1687;49.540;8.574;2023-07-13T07:39:26;3.10;;;1.60;;
3347;SDS011;1687;49.540;8.574;2023-07-13T07:41:52;3.07;;;1.83;;
3347;SDS011;1687;49.540;8.574;2023-07-13T07:44:18;2.80;;;1.57;;
3347;SDS011;1687;49.540;8.574;2023-07-13T07:46:43;5.73;;;2.10;;
3347;SDS011;1687;49.540;8.574;2023-07-13T07:49:09;7.90;;;2.43;;
3347;SDS011;1687;49.540;8.574;2023-07-13T07:51:35;4.80;;;1.87;;
3347;SDS011;1687;49.540;8.574;2023-07-13T07:54:01;6.63;;;2.03;;
3347;SDS011;1687;49.540;8.574;2023-07-13T07:56:28;3.40;;;1.97;;
3347;SDS011;1687;49.540;8.574;2023-07-13T07:58:54;6.57;;;2.10;;
3347;SDS011;1687;49.540;8.574;2023-07-13T08:01:20;6.90;;;2.10;;
3347;SDS011;1687;49.540;8.574;2023-07-13T08:03:46;5.50;;;1.83;;
3347;SDS011;1687;49.540;8.574;2023-07-13T08:06:12;5.53;;;2.50;;
3347;SDS011;1687;49.540;8.574;2023-07-13T08:08:38;4.47;;;1.77;;
3347;SDS011;1687;49.540;8.574;2023-07-13T08:11:07;3.87;;;1.90;;
3347;SDS011;1687;49.540;8.574;2023-07-13T08:13:34;5.10;;;2.00;;
3347;SDS011;1687;49.540;8.574;2023-07-13T08:15:59;4.20;;;2.20;;
3347;SDS011;1687;49.540;8.574;2023-07-13T08:18:25;10.33;;;2.53;;
3347;SDS011;1687;49.540;8.574;2023-07-13T08:20:53;4.23;;;1.57;;
3347;SDS011;1687;49.540;8.574;2023-07-13T08:23:21;3.27;;;1.40;;
3347;SDS011;1687;49.540;8.574;2023-07-13T08:25:51;6.57;;;1.80;;
3347;SDS011;1687;49.540;8.574;2023-07-13T08:28:18;3.33;;;1.77;;
3347;SDS011;1687;49.540;8.574;2023-07-13T08:30:45;6.00;;;1.83;;
3347;SDS011;1687;49.540;8.574;2023-07-13T08:33:18;5.53;;;2.20;;
3347;SDS011;1687;49.540;8.574;2023-07-13T08:35:48;3.33;;;1.53;;
3347;SDS011;1687;49.540;8.574;2023-07-13T08:38:15;15.53;;;2.20;;
3347;SDS011;1687;49.540;8.574;2023-07-13T08:40:42;5.70;;;1.63;;
3347;SDS011;1687;49.540;8.574;2023-07-13T08:43:12;5.10;;;1.77;;
3347;SDS011;1687;49.540;8.574;2023-07-13T08:48:21;4.37;;;1.50;;
3347;SDS011;1687;49.540;8.574;2023-07-13T08:53:40;4.90;;;2.00;;
3347;SDS011;1687;49.540;8.574;2023-07-13T08:56:19;5.50;;;2.03;;
3347;SDS011;1687;49.540;8.574;2023-07-13T08:58:56;4.57;;;1.27;;
3347;SDS011;1687;49.540;8.574;2023-07-13T09:04:36;5.63;;;1.50;;
3347;SDS011;1687;49.540;8.574;2023-07-13T09:07:56;3.70;;;1.60;;
3347;SDS011;1687;49.540;8.574;2023-07-13T09:10:30;2.60;;;1.57;;
3347;SDS011;1687;49.540;8.574;2023-07-13T09:16:03;2.17;;;1.40;;
3347;SDS011;1687;49.540;8.574;2023-07-13T09:18:34;3.80;;;1.40;;
3347;SDS011;1687;49.540;8.574;2023-07-13T09:23:45;4.30;;;1.53;;
3347;SDS011;1687;49.540;8.574;2023-07-13T09:26:14;5.70;;;1.73;;
3347;SDS011;1687;49.540;8.574;2023-07-13T09:28:46;2.93;;;1.40;;
3347;SDS011;1687;49.540;8.574;2023-07-13T09:31:28;5.20;;;1.60;;
3347;SDS011;1687;49.540;8.574;2023-07-13T09:34:02;2.80;;;1.50;;
3347;SDS011;1687;49.540;8.574;2023-07-13T09:36:34;2.47;;;1.60;;
3347;SDS011;1687;49.540;8.574;2023-07-13T09:39:12;6.97;;;1.30;;
3347;SDS011;1687;49.540;8.574;2023-07-13T09:42:15;4.67;;;1.80;;
3347;SDS011;1687;49.540;8.574;2023-07-13T09:47:26;9.63;;;2.00;;
3347;SDS011;1687;49.540;8.574;2023-07-13T09:52:38;3.53;;;1.50;;
3347;SDS011;1687;49.540;8.574;2023-07-13T09:55:26;3.73;;;1.53;;
3347;SDS011;1687;49.540;8.574;2023-07-13T09:58:04;5.30;;;1.10;;
3347;SDS011;1687;49.540;8.574;2023-07-13T10:00:42;3.40;;;1.27;;
3347;SDS011;1687;49.540;8.574;2023-07-13T10:03:21;4.20;;;1.53;;
3347;SDS011;1687;49.540;8.574;2023-07-13T10:06:00;2.50;;;1.50;;
3347;SDS011;1687;49.540;8.574;2023-07-13T10:08:43;3.90;;;1.43;;
3347;SDS011;1687;49.540;8.574;2023-07-13T10:14:02;2.30;;;1.20;;
3347;SDS011;1687;49.540;8.574;2023-07-13T10:16:41;2.80;;;1.23;;
3347;SDS011;1687;49.540;8.574;2023-07-13T10:19:12;6.03;;;1.40;;
3347;SDS011;1687;49.540;8.574;2023-07-13T10:22:13;2.93;;;1.27;;
3347;SDS011;1687;49.540;8.574;2023-07-13T10:24:49;5.30;;;1.37;;
3347;SDS011;1687;49.540;8.574;2023-07-13T10:27:17;3.20;;;1.20;;
3347;SDS011;1687;49.540;8.574;2023-07-13T10:29:46;12.60;;;1.20;;
3347;SDS011;1687;49.540;8.574;2023-07-13T10:32:19;4.30;;;1.50;;
3347;SDS011;1687;49.540;8.574;2023-07-13T10:34:49;3.67;;;1.50;;
3347;SDS011;1687;49.540;8.574;2023-07-13T10:37:19;5.20;;;1.30;;
3347;SDS011;1687;49.540;8.574;2023-07-13T10:39:57;3.27;;;1.50;;
3347;SDS011;1687;49.540;8.574;2023-07-13T10:42:39;5.60;;;1.30;;
3347;SDS011;1687;49.540;8.574;2023-07-13T10:45:15;4.80;;;1.47;;
3347;SDS011;1687;49.540;8.574;2023-07-13T10:47:46;3.23;;;1.40;;
3347;SDS011;1687;49.540;8.574;2023-07-13T10:50:19;5.03;;;2.00;;
3347;SDS011;1687;49.540;8.574;2023-07-13T10:52:50;2.83;;;1.60;;
3347;SDS011;1687;49.540;8.574;2023-07-13T10:55:40;6.77;;;1.43;;
3347;SDS011;1687;49.540;8.574;2023-07-13T10:58:35;1.80;;;0.87;;
3347;SDS011;1687;49.540;8.574;2023-07-13T11:03:46;3.57;;;1.10;;
3347;SDS011;1687;49.540;8.574;2023-07-13T11:08:59;2.30;;;1.30;;
3347;SDS011;1687;49.540;8.574;2023-07-13T11:11:51;3.20;;;1.10;;
3347;SDS011;1687;49.540;8.574;2023-07-13T11:19:52;1.87;;;1.10;;
3347;SDS011;1687;49.540;8.574;2023-07-13T11:22:23;2.00;;;0.97;;
3347;SDS011;1687;49.540;8.574;2023-07-13T11:25:21;1.40;;;0.90;;
3347;SDS011;1687;49.540;8.574;2023-07-13T11:28:06;2.70;;;1.30;;
3347;SDS011;1687;49.540;8.574;2023-07-13T11:30:36;3.30;;;1.60;;
3347;SDS011;1687;49.540;8.574;2023-07-13T11:33:21;3.87;;;1.47;;
3347;SDS011;1687;49.540;8.574;2023-07-13T11:36:04;4.47;;;1.43;;
3347;SDS011;1687;49.540;8.574;2023-07-13T11:38:42;6.60;;;1.47;;
3347;SDS011;1687;49.540;8.574;2023-07-13T11:41:44;2.90;;;1.90;;
3347;SDS011;1687;49.540;8.574;2023-07-13T11:44:18;5.07;;;1.33;;
3347;SDS011;1687;49.540;8.574;2023-07-13T11:46:47;1.70;;;0.90;;
3347;SDS011;1687;49.540;8.574;2023-07-13T11:49:16;3.30;;;1.20;;
3347;SDS011;1687;49.540;8.574;2023-07-13T11:51:44;2.67;;;1.40;;
3347;SDS011;1687;49.540;8.574;2023-07-13T11:54:15;1.87;;;1.50;;
3347;SDS011;1687;49.540;8.574;2023-07-13T11:56:53;2.80;;;1.10;;
3347;SDS011;1687;49.540;8.574;2023-07-13T11:59:27;2.63;;;1.40;;
3347;SDS011;1687;49.540;8.574;2023-07-13T12:01:55;5.73;;;1.57;;
3347;SDS011;1687;49.540;8.574;2023-07-13T12:04:24;2.00;;;1.17;;
3347;SDS011;1687;49.540;8.574;2023-07-13T12:06:58;3.10;;;1.13;;
3347;SDS011;1687;49.540;8.574;2023-07-13T12:09:30;2.57;;;1.10;;
3347;SDS011;1687;49.540;8.574;2023-07-13T12:11:58;6.10;;;1.63;;
3347;SDS011;1687;49.540;8.574;2023-07-13T12:14:27;2.20;;;1.10;;
3347;SDS011;1687;49.540;8.574;2023-07-13T12:16:53;1.87;;;1.20;;
3347;SDS011;1687;49.540;8.574;2023-07-13T12:19:25;2.50;;;1.27;;
3347;SDS011;1687;49.540;8.574;2023-07-13T12:21:56;7.33;;;1.50;;
3347;SDS011;1687;49.540;8.574;2023-07-13T12:24:23;3.67;;;1.10;;
3347;SDS011;1687;49.540;8.574;2023-07-13T12:26:55;2.07;;;1.17;;
3347;SDS011;1687;49.540;8.574;2023-07-13T12:29:26;2.93;;;1.03;;
3347;SDS011;1687;49.540;8.574;2023-07-13T12:31:52;1.43;;;1.17;;
3347;SDS011;1687;49.540;8.574;2023-07-13T12:34:19;3.43;;;1.57;;
3347;SDS011;1687;49.540;8.574;2023-07-13T12:36:50;6.20;;;1.33;;
3347;SDS011;1687;49.540;8.574;2023-07-13T12:39:19;6.27;;;2.33;;
3347;SDS011;1687;49.540;8.574;2023-07-13T12:41:51;1.43;;;0.87;;
3347;SDS011;1687;49.540;8.574;2023-07-13T12:44:20;3.73;;;1.10;;
3347;SDS011;1687;49.540;8.574;2023-07-13T12:47:03;3.63;;;1.47;;
3347;SDS011;1687;49.540;8.574;2023-07-13T12:49:39;4.30;;;1.60;;
3347;SDS011;1687;49.540;8.574;2023-07-13T12:52:14;3.97;;;1.50;;
3347;SDS011;1687;49.540;8.574;2023-07-13T12:54:58;1.73;;;1.07;;
3347;SDS011;1687;49.540;8.574;2023-07-13T12:58:02;2.20;;;1.27;;
3347;SDS011;1687;49.540;8.574;2023-07-13T13:00:36;1.70;;;1.13;;
3347;SDS011;1687;49.540;8.574;2023-07-13T13:03:17;3.00;;;1.17;;
3347;SDS011;1687;49.540;8.574;2023-07-13T13:05:56;6.70;;;1.10;;
3347;SDS011;1687;49.540;8.574;2023-07-13T13:08:24;4.43;;;1.30;;
3347;SDS011;1687;49.540;8.574;2023-07-13T13:10:50;2.83;;;1.00;;
3347;SDS011;1687;49.540;8.574;2023-07-13T13:13:16;2.67;;;1.33;;
3347;SDS011;1687;49.540;8.574;2023-07-13T13:15:42;1.48;;;1.20;;
3347;SDS011;1687;49.540;8.574;2023-07-13T13:18:13;5.83;;;1.50;;
3347;SDS011;1687;49.540;8.574;2023-07-13T13:20:50;2.63;;;1.40;;
3347;SDS011;1687;49.540;8.574;2023-07-13T13:23:17;3.63;;;1.47;;
3347;SDS011;1687;49.540;8.574;2023-07-13T13:25:45;3.10;;;1.40;;
3347;SDS011;1687;49.540;8.574;2023-07-13T13:28:16;8.40;;;1.60;;
3347;SDS011;1687;49.540;8.574;2023-07-13T13:30:45;2.27;;;1.30;;
3347;SDS011;1687;49.540;8.574;2023-07-13T13:33:15;3.30;;;1.40;;
3347;SDS011;1687;49.540;8.574;2023-07-13T13:35:43;2.43;;;1.17;;
3347;SDS011;1687;49.540;8.574;2023-07-13T13:38:13;2.30;;;1.20;;
3347;SDS011;1687;49.540;8.574;2023-07-13T13:40:43;4.30;;;1.17;;
3347;SDS011;1687;49.540;8.574;2023-07-13T13:43:14;5.70;;;1.60;;
3347;SDS011;1687;49.540;8.574;2023-07-13T13:45:45;2.27;;;1.50;;
3347;SDS011;1687;49.540;8.574;2023-07-13T13:48:19;8.10;;;1.50;;
3347;SDS011;1687;49.540;8.574;2023-07-13T13:50:55;2.30;;;1.10;;
3347;SDS011;1687;49.540;8.574;2023-07-13T13:53:21;3.13;;;1.57;;
3347;SDS011;1687;49.540;8.574;2023-07-13T13:55:48;7.23;;;1.80;;
3347;SDS011;1687;49.540;8.574;2023-07-13T13:58:15;3.93;;;1.30;;
3347;SDS011;1687;49.540;8.574;2023-07-13T14:00:41;3.63;;;1.53;;
3347;SDS011;1687;49.540;8.574;2023-07-13T14:03:19;5.50;;;1.90;;
3347;SDS011;1687;49.540;8.574;2023-07-13T14:05:47;8.00;;;2.03;;
3347;SDS011;1687;49.540;8.574;2023-07-13T14:08:18;6.87;;;1.50;;
3347;SDS011;1687;49.540;8.574;2023-07-13T14:10:45;4.13;;;1.40;;
3347;SDS011;1687;49.540;8.574;2023-07-13T14:13:19;6.80;;;1.40;;
3347;SDS011;1687;49.540;8.574;2023-07-13T14:15:54;4.60;;;1.30;;
3347;SDS011;1687;49.540;8.574;2023-07-13T14:18:20;2.63;;;1.70;;
3347;SDS011;1687;49.540;8.574;2023-07-13T14:20:47;2.27;;;1.47;;
3347;SDS011;1687;49.540;8.574;2023-07-13T14:23:14;2.88;;;1.15;;
3347;SDS011;1687;49.540;8.574;2023-07-13T14:25:41;2.80;;;1.13;;
3347;SDS011;1687;49.540;8.574;2023-07-13T14:28:14;3.30;;;1.50;;
3347;SDS011;1687;49.540;8.574;2023-07-13T14:30:49;6.30;;;1.23;;
3347;SDS011;1687;49.540;8.574;2023-07-13T14:33:16;7.07;;;2.17;;
3347;SDS011;1687;49.540;8.574;2023-07-13T14:35:42;1.83;;;1.20;;
3347;SDS011;1687;49.540;8.574;2023-07-13T14:38:11;9.33;;;1.50;;
3347;SDS011;1687;49.540;8.574;2023-07-13T14:40:44;2.90;;;1.30;;
3347;SDS011;1687;49.540;8.574;2023-07-13T14:43:11;4.90;;;1.43;;
3347;SDS011;1687;49.540;8.574;2023-07-13T14:45:43;1.83;;;1.10;;
3347;SDS011;1687;49.540;8.574;2023-07-13T14:48:19;1.30;;;1.10;;
3347;SDS011;1687;49.540;8.574;2023-07-13T14:50:50;9.10;;;1.60;;
3347;SDS011;1687;49.540;8.574;2023-07-13T14:53:21;4.40;;;1.50;;
3347;SDS011;1687;49.540;8.574;2023-07-13T14:55:48;2.93;;;1.57;;
3347;SDS011;1687;49.540;8.574;2023-07-13T14:58:13;11.00;;;1.20;;
3347;SDS011;1687;49.540;8.574;2023-07-13T15:00:39;3.10;;;1.30;;
3347;SDS011;1687;49.540;8.574;2023-07-13T15:03:06;2.80;;;1.00;;
3347;SDS011;1687;49.540;8.574;2023-07-13T15:05:46;4.23;;;1.30;;
3347;SDS011;1687;49.540;8.574;2023-07-13T15:08:13;7.20;;;1.30;;
3347;SDS011;1687;49.540;8.574;2023-07-13T15:10:40;4.32;;;1.10;;
3347;SDS011;1687;49.540;8.574;2023-07-13T15:13:16;2.90;;;1.23;;
3347;SDS011;1687;49.540;8.574;2023-07-13T15:15:48;1.10;;;0.83;;
3347;SDS011;1687;49.540;8.574;2023-07-13T15:18:19;4.20;;;1.10;;
3347;SDS011;1687;49.540;8.574;2023-07-13T15:20:48;2.80;;;1.40;;
3347;SDS011;1687;49.540;8.574;2023-07-13T15:23:16;1.63;;;0.90;;
3347;SDS011;1687;49.540;8.574;2023-07-13T15:25:43;1.30;;;0.97;;
3347;SDS011;1687;49.540;8.574;2023-07-13T15:28:10;3.17;;;1.10;;
3347;SDS011;1687;49.540;8.574;2023-07-13T15:30:39;5.03;;;0.95;;
3347;SDS011;1687;49.540;8.574;2023-07-13T15:33:30;1.87;;;0.80;;
3347;SDS011;1687;49.540;8.574;2023-07-13T15:35:55;5.27;;;1.10;;
3347;SDS011;1687;49.540;8.574;2023-07-13T15:38:24;4.27;;;1.40;;
3347;SDS011;1687;49.540;8.574;2023-07-13T15:40:54;2.13;;;1.00;;
3347;SDS011;1687;49.540;8.574;2023-07-13T15:43:21;2.90;;;1.20;;
3347;SDS011;1687;49.540;8.574;2023-07-13T15:45:47;2.90;;;1.23;;
3347;SDS011;1687;49.540;8.574;2023-07-13T15:48:16;6.80;;;1.30;;
3347;SDS011;1687;49.540;8.574;2023-07-13T15:50:48;6.80;;;1.10;;
3347;SDS011;1687;49.540;8.574;2023-07-13T15:53:27;3.63;;;1.00;;
3347;SDS011;1687;49.540;8.574;2023-07-13T15:55:57;3.23;;;1.20;;
3347;SDS011;1687;49.540;8.574;2023-07-13T15:58:23;3.53;;;1.47;;
3347;SDS011;1687;49.540;8.574;2023-07-13T16:00:50;1.57;;;0.87;;
3347;SDS011;1687;49.540;8.574;2023-07-13T16:03:16;2.00;;;1.10;;
3347;SDS011;1687;49.540;8.574;2023-07-13T16:05:45;2.90;;;1.20;;
3347;SDS011;1687;49.540;8.574;2023-07-13T16:08:27;5.60;;;1.10;;